createdAt,value
2019-06-27T00:00:28.687Z,92.60
2019-06-27T00:02:57.089Z,92.87
2019-06-27T00:05:25.611Z,92.46
2019-06-27T00:07:54.069Z,93.03
2019-06-27T00:10:23.306Z,92.91
2019-06-27T00:12:51.754Z,93.01
2019-06-27T00:15:20.168Z,93.54
2019-06-27T00:17:48.674Z,93.36
2019-06-27T00:20:17.255Z,93.62
2019-06-27T00:22:46.097Z,94.13
2019-06-27T00:25:14.681Z,93.60
2019-06-27T00:27:43.126Z,93.74
2019-06-27T00:30:13.385Z,93.69
2019-06-27T00:32:41.834Z,93.69
2019-06-27T00:35:10.683Z,93.51
2019-06-27T00:37:39.122Z,93.73
2019-06-27T00:40:08.400Z,93.64
2019-06-27T00:42:36.810Z,93.06
2019-06-27T00:45:06.791Z,93.37
2019-06-27T00:47:35.207Z,93.44
2019-06-27T00:50:09.324Z,92.98
2019-06-27T00:52:37.860Z,92.76
2019-06-27T00:55:07.308Z,92.90
2019-06-27T00:57:36.060Z,93.12
2019-06-27T01:00:07.759Z,93.20
2019-06-27T01:02:36.260Z,93.24
2019-06-27T01:05:06.638Z,92.96
2019-06-27T01:07:35.125Z,92.83
2019-06-27T01:10:05.303Z,92.54
2019-06-27T01:12:33.805Z,92.68
2019-06-27T01:15:02.315Z,92.36
2019-06-27T01:17:31.109Z,91.92
2019-06-27T01:19:59.537Z,92.42
2019-06-27T01:22:27.958Z,91.71
2019-06-27T01:24:56.462Z,91.78
2019-06-27T01:27:29.999Z,91.12
2019-06-27T01:29:55.029Z,90.91
2019-06-27T01:32:23.470Z,91.22
2019-06-27T01:34:51.891Z,91.18
2019-06-27T01:37:20.311Z,91.24
2019-06-27T01:39:48.748Z,91.57
2019-06-27T01:42:17.164Z,91.50
2019-06-27T01:44:52.964Z,91.55
2019-06-27T01:47:21.371Z,91.50
2019-06-27T01:49:49.783Z,91.72
2019-06-27T01:52:18.225Z,91.91
2019-06-27T01:54:46.737Z,91.60
2019-06-27T01:57:15.159Z,91.45
2019-06-27T01:59:43.598Z,91.95
2019-06-27T02:02:12.066Z,91.97
2019-06-27T02:04:40.522Z,92.00
2019-06-27T02:07:09.004Z,91.68
2019-06-27T02:09:37.437Z,91.91
2019-06-27T02:12:05.964Z,91.83
2019-06-27T02:14:34.385Z,92.61
2019-06-27T02:17:02.820Z,92.68
2019-06-27T02:19:31.253Z,92.82
2019-06-27T02:21:59.679Z,92.69
2019-06-27T02:24:28.125Z,92.79
2019-06-27T02:26:56.542Z,92.35
2019-06-27T02:29:24.987Z,92.06
2019-06-27T02:31:53.424Z,92.17
2019-06-27T02:34:21.839Z,91.52
2019-06-27T02:36:50.301Z,91.63
2019-06-27T02:39:19.011Z,91.32
2019-06-27T02:41:47.490Z,91.22
2019-06-27T02:44:15.925Z,91.08
2019-06-27T02:46:44.353Z,90.99
2019-06-27T02:49:12.854Z,91.07
2019-06-27T02:51:41.325Z,91.83
2019-06-27T02:54:09.742Z,92.18
2019-06-27T02:56:38.200Z,92.03
2019-06-27T02:59:06.637Z,91.99
2019-06-27T03:01:35.099Z,91.70
2019-06-27T03:04:03.541Z,91.95
2019-06-27T03:06:31.951Z,90.86
2019-06-27T03:09:00.445Z,90.47
2019-06-27T03:11:28.867Z,90.17
2019-06-27T03:13:57.292Z,89.81
2019-06-27T03:16:25.734Z,89.77
2019-06-27T03:18:54.175Z,90.26
2019-06-27T03:21:22.597Z,89.83
2019-06-27T03:23:51.095Z,89.51
2019-06-27T03:26:19.549Z,89.60
2019-06-27T03:28:53.087Z,89.97
2019-06-27T03:31:18.144Z,89.69
2019-06-27T03:33:46.544Z,89.46
2019-06-27T03:36:15.008Z,89.40
2019-06-27T03:38:43.433Z,89.23
2019-06-27T03:41:11.979Z,89.42
2019-06-27T03:43:40.407Z,89.21
2019-06-27T03:46:08.835Z,89.72
2019-06-27T03:48:37.239Z,89.50
2019-06-27T03:51:05.667Z,90.19
2019-06-27T03:53:34.128Z,90.33
2019-06-27T03:56:02.557Z,90.57
2019-06-27T03:58:31.005Z,91.25
2019-06-27T04:00:59.391Z,91.61
2019-06-27T04:03:27.837Z,91.71
2019-06-27T04:05:56.321Z,91.24
2019-06-27T04:08:24.797Z,91.37
2019-06-27T04:10:53.303Z,91.65
2019-06-27T04:13:21.728Z,90.86
2019-06-27T04:15:50.169Z,90.67
2019-06-27T04:18:18.591Z,89.85
2019-06-27T04:20:47.028Z,89.84
2019-06-27T04:23:15.466Z,89.88
2019-06-27T04:25:43.867Z,89.70
2019-06-27T04:28:12.372Z,89.05
2019-06-27T04:30:40.798Z,88.79
2019-06-27T04:33:09.236Z,88.15
2019-06-27T04:35:37.666Z,88.40
2019-06-27T04:38:06.151Z,88.01
2019-06-27T04:40:34.565Z,87.91
2019-06-27T04:43:05.808Z,88.53
2019-06-27T04:45:33.144Z,88.20
2019-06-27T04:48:01.552Z,87.97
2019-06-27T04:50:29.991Z,87.78
2019-06-27T04:52:58.410Z,87.05
2019-06-27T04:55:26.839Z,86.62
2019-06-27T04:57:55.267Z,87.12
2019-06-27T05:00:29.165Z,87.23
2019-06-27T05:02:57.834Z,87.14
2019-06-27T05:05:26.406Z,86.32
2019-06-27T05:07:55.006Z,84.55
2019-06-27T05:10:23.469Z,82.46
2019-06-27T05:12:52.339Z,80.91
2019-06-27T05:15:20.750Z,80.53
2019-06-27T05:17:49.188Z,79.92
2019-06-27T05:20:17.689Z,80.84
2019-06-27T05:22:46.174Z,81.83
2019-06-27T05:25:14.675Z,82.14
2019-06-27T05:27:43.180Z,81.55
2019-06-27T05:30:13.765Z,81.60
2019-06-27T05:32:42.288Z,80.09
2019-06-27T05:35:10.746Z,80.36
2019-06-27T05:37:39.194Z,80.98
2019-06-27T05:40:08.812Z,81.06
2019-06-27T05:42:37.236Z,80.22
2019-06-27T05:45:06.902Z,79.50
2019-06-27T05:47:35.389Z,80.13
2019-06-27T05:50:06.322Z,79.41
2019-06-27T05:52:34.707Z,79.12
2019-06-27T05:55:03.382Z,79.57
2019-06-27T05:57:31.819Z,79.02
2019-06-27T06:00:00.247Z,78.36
2019-06-27T06:02:28.683Z,77.68
2019-06-27T06:04:57.125Z,79.04
2019-06-27T06:07:25.609Z,77.44
2019-06-27T06:09:54.098Z,78.34
2019-06-27T06:12:22.616Z,77.62
2019-06-27T06:14:50.993Z,77.08
2019-06-27T06:17:19.431Z,75.30
2019-06-27T06:19:47.850Z,72.80
2019-06-27T06:22:16.255Z,71.22
2019-06-27T06:24:44.697Z,70.13
2019-06-27T06:27:13.125Z,70.82
2019-06-27T06:29:41.567Z,70.82
2019-06-27T06:32:10.055Z,68.94
2019-06-27T06:34:38.487Z,68.19
2019-06-27T06:37:08.177Z,67.10
2019-06-27T06:39:36.709Z,68.47
2019-06-27T06:42:05.217Z,68.69
2019-06-27T06:44:33.643Z,68.29
2019-06-27T06:47:02.064Z,66.89
2019-06-27T06:49:30.553Z,66.67
2019-06-27T06:51:58.984Z,67.44
2019-06-27T06:54:27.400Z,67.47
2019-06-27T06:56:55.815Z,68.39
2019-06-27T06:59:24.239Z,68.41
2019-06-27T07:01:52.662Z,67.20
2019-06-27T07:04:21.101Z,67.20
2019-06-27T07:06:50.009Z,67.91
2019-06-27T07:09:18.535Z,67.55
2019-06-27T07:11:46.949Z,66.71
2019-06-27T07:14:15.375Z,67.57
2019-06-27T07:16:43.818Z,66.79
2019-06-27T07:19:12.207Z,67.08
2019-06-27T07:21:40.632Z,67.12
2019-06-27T07:24:09.071Z,66.84
2019-06-27T07:26:37.509Z,65.60
2019-06-27T07:29:05.942Z,65.60
2019-06-27T07:31:34.374Z,64.39
2019-06-27T07:34:02.805Z,62.27
2019-06-27T07:36:31.210Z,59.86
2019-06-27T07:38:59.648Z,61.02
2019-06-27T07:41:28.062Z,60.74
2019-06-27T07:43:56.644Z,59.67
2019-06-27T07:46:26.050Z,59.57
2019-06-27T07:48:54.756Z,59.58
2019-06-27T07:51:23.186Z,60.78
2019-06-27T07:53:51.595Z,61.58
2019-06-27T07:56:20.013Z,59.80
2019-06-27T07:58:48.442Z,58.90
2019-06-27T08:01:33.700Z,58.82
2019-06-27T08:03:47.027Z,58.79
2019-06-27T08:06:15.459Z,58.42
2019-06-27T08:08:43.892Z,58.49
2019-06-27T08:11:12.317Z,59.44
2019-06-27T08:13:40.727Z,58.94
2019-06-27T08:16:09.164Z,61.54
2019-06-27T08:18:37.577Z,61.87
2019-06-27T08:21:06.561Z,61.74
2019-06-27T08:23:41.531Z,62.78
2019-06-27T08:26:05.199Z,64.43
2019-06-27T08:28:33.644Z,64.46
2019-06-27T08:31:02.095Z,62.64
2019-06-27T08:33:30.537Z,62.84
2019-06-27T08:35:58.962Z,62.84
2019-06-27T08:38:27.389Z,62.84
2019-06-27T08:40:55.788Z,63.22
2019-06-27T08:43:24.236Z,62.92
2019-06-27T08:45:52.648Z,62.92
2019-06-27T08:48:21.057Z,62.42
2019-06-27T08:50:49.582Z,61.96
2019-06-27T08:53:18.001Z,63.28
2019-06-27T08:55:46.479Z,63.28
2019-06-27T08:58:14.902Z,63.38
2019-06-27T09:00:45.889Z,61.97
2019-06-27T09:03:13.529Z,62.13
2019-06-27T09:05:41.922Z,61.78
2019-06-27T09:08:10.348Z,61.77
2019-06-27T09:10:38.761Z,61.97
2019-06-27T09:13:07.221Z,62.12
2019-06-27T09:15:35.632Z,60.50
2019-06-27T09:18:04.081Z,61.15
2019-06-27T09:20:32.545Z,61.58
2019-06-27T09:23:00.981Z,61.12
2019-06-27T09:25:29.424Z,61.68
2019-06-27T09:27:57.849Z,61.31
2019-06-27T09:30:26.412Z,60.04
2019-06-27T09:32:55.121Z,60.04
2019-06-27T09:35:25.099Z,60.41
2019-06-27T09:37:53.529Z,61.02
2019-06-27T09:40:23.391Z,61.53
2019-06-27T09:42:51.837Z,60.79
2019-06-27T09:45:21.407Z,61.01
2019-06-27T09:47:49.957Z,60.72
2019-06-27T09:50:21.522Z,60.94
2019-06-27T09:52:48.629Z,59.92
2019-06-27T09:55:17.987Z,59.84
2019-06-27T09:57:46.410Z,59.75
2019-06-27T10:00:15.682Z,59.82
2019-06-27T10:02:44.114Z,60.22
2019-06-27T10:05:13.225Z,60.00
2019-06-27T10:07:41.724Z,59.92
2019-06-27T10:10:10.387Z,60.13
2019-06-27T10:12:42.704Z,59.48
2019-06-27T10:15:10.095Z,59.55
2019-06-27T10:17:38.524Z,59.52
2019-06-27T10:20:08.308Z,59.81
2019-06-27T10:22:36.788Z,59.56
2019-06-27T10:25:06.845Z,58.90
2019-06-27T10:27:35.299Z,59.89
2019-06-27T10:30:05.755Z,60.02
2019-06-27T10:32:34.171Z,59.66
2019-06-27T10:35:02.744Z,59.85
2019-06-27T10:37:31.201Z,59.98
2019-06-27T10:39:59.673Z,59.00
2019-06-27T10:42:28.191Z,58.87
2019-06-27T10:44:56.619Z,58.11
2019-06-27T10:47:25.045Z,57.96
2019-06-27T10:49:53.456Z,57.59
2019-06-27T10:52:21.910Z,57.86
2019-06-27T10:54:50.327Z,56.61
2019-06-27T10:57:18.732Z,56.83
2019-06-27T10:59:47.209Z,56.69
2019-06-27T11:02:15.629Z,55.96
2019-06-27T11:04:44.040Z,56.80
2019-06-27T11:07:12.479Z,56.44
2019-06-27T11:09:40.872Z,56.01
2019-06-27T11:12:09.297Z,57.24
2019-06-27T11:14:37.760Z,56.93
2019-06-27T11:17:06.140Z,57.02
2019-06-27T11:19:34.574Z,56.43
2019-06-27T11:22:02.996Z,57.16
2019-06-27T11:24:31.414Z,56.37
2019-06-27T11:26:59.862Z,56.30
2019-06-27T11:29:28.265Z,56.88
2019-06-27T11:31:56.711Z,55.78
2019-06-27T11:34:25.148Z,56.07
2019-06-27T11:36:53.556Z,55.89
2019-06-27T11:39:23.351Z,56.23
2019-06-27T11:41:52.238Z,56.68
2019-06-27T11:44:20.654Z,56.27
2019-06-27T11:46:49.101Z,56.23
2019-06-27T11:49:17.511Z,56.61
2019-06-27T11:51:46.009Z,57.80
2019-06-27T11:54:14.452Z,57.56
2019-06-27T11:56:42.875Z,57.10
2019-06-27T11:59:11.293Z,57.75
2019-06-27T12:01:39.733Z,56.90
2019-06-27T12:04:08.121Z,57.03
2019-06-27T12:06:36.547Z,56.49
2019-06-27T12:09:08.996Z,56.99
2019-06-27T12:11:37.399Z,57.12
2019-06-27T12:14:05.835Z,57.04
2019-06-27T12:16:34.260Z,56.78
2019-06-27T12:19:02.760Z,56.68
2019-06-27T12:21:31.162Z,56.67
2019-06-27T12:23:59.575Z,57.13
2019-06-27T12:26:28.000Z,57.61
2019-06-27T12:28:56.399Z,57.43
2019-06-27T12:31:25.178Z,56.73
2019-06-27T12:34:06.113Z,57.26
2019-06-27T12:36:23.764Z,57.71
2019-06-27T12:38:52.268Z,57.42
2019-06-27T12:41:20.725Z,57.09
2019-06-27T12:43:49.151Z,57.90
2019-06-27T12:46:17.575Z,57.37
2019-06-27T12:48:48.768Z,57.26
2019-06-27T12:51:17.194Z,57.94
2019-06-27T12:53:45.701Z,57.25
2019-06-27T12:56:14.595Z,56.50
2019-06-27T12:58:42.998Z,57.22
2019-06-27T13:01:11.419Z,57.47
2019-06-27T13:03:42.768Z,58.53
2019-06-27T13:06:11.212Z,58.73
2019-06-27T13:08:39.693Z,57.78
2019-06-27T13:11:08.130Z,57.71
2019-06-27T13:13:36.572Z,56.97
2019-06-27T13:16:05.054Z,57.48
2019-06-27T13:18:33.501Z,57.34
2019-06-27T13:21:02.010Z,58.36
2019-06-27T13:23:30.477Z,57.60
2019-06-27T13:25:58.906Z,58.08
2019-06-27T13:28:27.345Z,58.63
2019-06-27T13:30:56.128Z,57.23
2019-06-27T13:33:24.618Z,56.49
2019-06-27T13:35:53.047Z,56.78
2019-06-27T13:38:21.465Z,56.10
2019-06-27T13:40:49.957Z,56.85
2019-06-27T13:43:18.449Z,56.97
2019-06-27T13:45:46.874Z,55.69
2019-06-27T13:48:15.303Z,55.25
2019-06-27T13:50:43.842Z,55.41
2019-06-27T13:53:12.287Z,56.82
2019-06-27T13:55:40.705Z,56.95
2019-06-27T13:58:09.397Z,56.76
2019-06-27T14:00:47.113Z,56.33
2019-06-27T14:03:15.553Z,56.45
2019-06-27T14:05:44.029Z,56.50
2019-06-27T14:08:12.508Z,55.78
2019-06-27T14:10:40.949Z,56.23
2019-06-27T14:13:09.382Z,56.22
2019-06-27T14:15:37.862Z,56.28
2019-06-27T14:18:06.308Z,56.91
2019-06-27T14:20:34.723Z,57.16
2019-06-27T14:23:03.184Z,57.05
2019-06-27T14:25:31.688Z,57.41
2019-06-27T14:28:00.148Z,57.06
2019-06-27T14:30:28.641Z,57.08
2019-06-27T14:32:57.092Z,57.97
2019-06-27T14:35:25.501Z,57.74
2019-06-27T14:37:53.925Z,58.55
2019-06-27T14:40:22.677Z,58.14
2019-06-27T14:42:51.177Z,58.16
2019-06-27T14:45:19.847Z,58.35
2019-06-27T14:47:49.035Z,58.29
2019-06-27T14:50:17.572Z,59.72
2019-06-27T14:52:45.999Z,58.48
2019-06-27T14:55:15.055Z,58.58
2019-06-27T14:57:43.481Z,58.88
2019-06-27T15:00:12.281Z,58.71
2019-06-27T15:02:40.748Z,58.18
2019-06-27T15:05:11.195Z,58.09
2019-06-27T15:07:39.633Z,57.92
2019-06-27T15:10:09.399Z,58.28
2019-06-27T15:12:38.051Z,58.27
2019-06-27T15:15:07.507Z,58.95
2019-06-27T15:17:35.928Z,58.72
2019-06-27T15:20:08.861Z,59.29
2019-06-27T15:22:37.334Z,58.90
2019-06-27T15:25:07.608Z,58.48
2019-06-27T15:27:36.116Z,58.85
2019-06-27T15:30:09.482Z,58.59
2019-06-27T15:32:37.970Z,59.10
2019-06-27T15:35:07.121Z,59.23
2019-06-27T15:37:35.666Z,59.68
2019-06-27T15:40:06.025Z,59.50
2019-06-27T15:42:34.537Z,60.51
2019-06-27T15:45:09.555Z,60.63
2019-06-27T15:47:38.096Z,60.17
2019-06-27T15:50:07.152Z,60.36
2019-06-27T15:52:35.568Z,60.32
2019-06-27T15:55:10.808Z,59.75
2019-06-27T15:57:37.961Z,60.14
2019-06-27T16:00:08.135Z,59.84
2019-06-27T16:02:37.118Z,59.90
2019-06-27T16:05:06.134Z,60.20
2019-06-27T16:07:34.659Z,60.19
2019-06-27T16:10:03.890Z,60.90
2019-06-27T16:12:32.304Z,60.77
2019-06-27T16:15:00.748Z,61.43
2019-06-27T16:17:29.213Z,61.27
2019-06-27T16:19:57.630Z,61.54
2019-06-27T16:22:26.154Z,61.34
2019-06-27T16:24:54.614Z,61.83
2019-06-27T16:27:23.036Z,60.83
2019-06-27T16:29:51.452Z,60.97
2019-06-27T16:32:19.892Z,61.46
2019-06-27T16:34:48.303Z,61.06
2019-06-27T16:37:16.865Z,61.07
2019-06-27T16:39:45.342Z,61.17
2019-06-27T16:42:13.742Z,61.93
2019-06-27T16:44:42.261Z,61.97
2019-06-27T16:47:10.891Z,61.70
2019-06-27T16:49:39.272Z,62.15
2019-06-27T16:52:07.694Z,62.54
2019-06-27T16:54:36.236Z,61.69
2019-06-27T16:57:04.843Z,61.42
2019-06-27T16:59:33.511Z,61.18
2019-06-27T17:02:02.049Z,61.74
2019-06-27T17:04:30.676Z,62.37
2019-06-27T17:06:59.097Z,62.43
2019-06-27T17:09:27.814Z,62.08
2019-06-27T17:11:56.372Z,62.64
2019-06-27T17:14:24.792Z,62.71
2019-06-27T17:16:53.214Z,63.04
2019-06-27T17:19:21.927Z,63.27
2019-06-27T17:21:50.343Z,63.14
2019-06-27T17:24:19.176Z,63.15
2019-06-27T17:26:47.610Z,63.41
2019-06-27T17:29:16.037Z,63.23
2019-06-27T17:31:46.073Z,63.40
2019-06-27T17:34:14.519Z,63.11
2019-06-27T17:36:56.542Z,63.29
2019-06-27T17:39:13.250Z,63.70
2019-06-27T17:41:41.643Z,63.70
2019-06-27T17:44:10.089Z,63.54
2019-06-27T17:46:38.592Z,63.54
2019-06-27T17:49:06.986Z,64.05
2019-06-27T17:51:35.493Z,64.05
2019-06-27T17:54:03.972Z,63.99
2019-06-27T17:56:32.455Z,63.99
2019-06-27T17:59:00.963Z,63.67
2019-06-27T18:01:29.901Z,63.74
2019-06-27T18:03:58.325Z,63.78
2019-06-27T18:06:26.747Z,63.78
2019-06-27T18:08:55.243Z,64.17
2019-06-27T18:11:23.727Z,64.17
2019-06-27T18:13:52.126Z,64.58
2019-06-27T18:16:20.557Z,64.24
2019-06-27T18:18:49.000Z,64.24
2019-06-27T18:21:17.490Z,64.99
2019-06-27T18:23:45.921Z,65.07
2019-06-27T18:26:14.343Z,65.07
2019-06-27T18:28:42.769Z,65.52
2019-06-27T18:31:11.529Z,65.70
2019-06-27T18:33:39.927Z,65.78
2019-06-27T18:36:08.392Z,65.67
2019-06-27T18:38:36.831Z,66.17
2019-06-27T18:41:05.320Z,66.58
2019-06-27T18:43:33.794Z,66.99
2019-06-27T18:46:02.184Z,67.01
2019-06-27T18:48:30.637Z,67.09
2019-06-27T18:50:59.149Z,67.25
2019-06-27T18:53:27.551Z,67.46
2019-06-27T18:55:56.016Z,67.79
2019-06-27T18:58:24.447Z,68.38
2019-06-27T19:00:52.905Z,68.76
2019-06-27T19:03:21.365Z,68.81
2019-06-27T19:05:49.936Z,69.08
2019-06-27T19:08:18.375Z,69.06
2019-06-27T19:10:46.815Z,68.71
2019-06-27T19:13:15.233Z,68.99
2019-06-27T19:15:43.670Z,69.10
2019-06-27T19:18:29.965Z,69.13
2019-06-27T19:21:00.082Z,69.42
2019-06-27T19:23:33.192Z,69.63
2019-06-27T19:26:02.021Z,69.88
2019-06-27T19:28:30.441Z,70.33
2019-06-27T19:30:58.877Z,70.08
2019-06-27T19:33:27.306Z,70.53
2019-06-27T19:35:55.725Z,70.66
2019-06-27T19:38:26.293Z,71.17
2019-06-27T19:40:54.786Z,71.05
2019-06-27T19:43:27.638Z,71.13
2019-06-27T19:45:53.382Z,71.27
2019-06-27T19:48:21.806Z,71.69
2019-06-27T19:50:50.239Z,71.97
2019-06-27T19:53:18.735Z,72.29
2019-06-27T19:55:47.160Z,72.62
2019-06-27T19:58:15.602Z,72.29
2019-06-27T20:00:44.559Z,72.60
2019-06-27T20:03:13.459Z,72.96
2019-06-27T20:05:43.669Z,73.53
2019-06-27T20:08:19.435Z,73.98
2019-06-27T20:10:46.226Z,74.07
2019-06-27T20:13:17.557Z,73.95
2019-06-27T20:15:46.977Z,74.22
2019-06-27T20:18:15.630Z,74.47
2019-06-27T20:20:44.208Z,74.80
2019-06-27T20:23:13.248Z,75.28
2019-06-27T20:25:42.521Z,75.64
2019-06-27T20:28:12.299Z,75.59
2019-06-27T20:30:44.293Z,76.27
2019-06-27T20:33:13.210Z,76.70
2019-06-27T20:35:42.353Z,76.67
2019-06-27T20:38:10.902Z,76.73
2019-06-27T20:40:39.390Z,77.05
2019-06-27T20:43:07.840Z,77.24
2019-06-27T20:45:36.931Z,77.30
2019-06-27T20:48:05.373Z,76.49
2019-06-27T20:50:33.946Z,76.69
2019-06-27T20:53:02.360Z,76.68
2019-06-27T20:55:31.029Z,77.38
2019-06-27T20:58:00.225Z,77.05
2019-06-27T21:00:34.992Z,77.64
2019-06-27T21:03:04.705Z,77.95
2019-06-27T21:05:33.488Z,77.71
2019-06-27T21:08:01.925Z,78.03
2019-06-27T21:10:30.357Z,78.15
2019-06-27T21:12:58.778Z,78.14
2019-06-27T21:15:27.281Z,78.67
2019-06-27T21:17:56.009Z,78.88
2019-06-27T21:20:24.601Z,78.70
2019-06-27T21:22:53.029Z,78.95
2019-06-27T21:25:21.571Z,78.79
2019-06-27T21:27:50.007Z,78.97
2019-06-27T21:30:19.152Z,79.52
2019-06-27T21:32:48.565Z,79.48
2019-06-27T21:35:17.261Z,79.60
2019-06-27T21:37:45.705Z,79.67
2019-06-27T21:40:20.249Z,79.85
2019-06-27T21:42:48.667Z,80.23
2019-06-27T21:45:17.631Z,79.98
2019-06-27T21:47:46.066Z,80.53
2019-06-27T21:50:14.600Z,80.81
2019-06-27T21:52:43.023Z,80.84
2019-06-27T21:55:11.601Z,81.29
2019-06-27T21:57:40.034Z,81.52
2019-06-27T22:00:09.317Z,81.92
2019-06-27T22:02:37.782Z,81.82
2019-06-27T22:05:07.127Z,81.92
2019-06-27T22:07:35.788Z,82.21
2019-06-27T22:10:06.290Z,82.93
2019-06-27T22:12:35.000Z,83.25
2019-06-27T22:15:04.195Z,83.71
2019-06-27T22:17:32.653Z,84.18
2019-06-27T22:20:14.550Z,84.12
2019-06-27T22:22:31.385Z,83.96
2019-06-27T22:24:59.815Z,84.53
2019-06-27T22:27:28.262Z,84.76
2019-06-27T22:29:56.676Z,84.37
2019-06-27T22:32:25.359Z,84.71
2019-06-27T22:34:53.796Z,84.58
2019-06-27T22:37:24.347Z,85.03
2019-06-27T22:40:11.892Z,84.94
2019-06-27T22:42:59.461Z,84.75
2019-06-27T22:45:45.955Z,84.74
2019-06-27T22:48:14.085Z,84.80
2019-06-27T22:50:46.659Z,84.49
2019-06-27T22:53:16.758Z,85.00
2019-06-27T22:55:45.170Z,84.56
2019-06-27T22:58:13.609Z,84.65
2019-06-27T23:00:42.035Z,84.84
2019-06-27T23:03:10.512Z,85.12
2019-06-27T23:05:39.794Z,85.10
2019-06-27T23:08:08.224Z,85.05
2019-06-27T23:10:36.676Z,84.99
2019-06-27T23:13:05.244Z,85.02
2019-06-27T23:15:33.679Z,84.83
2019-06-27T23:18:02.131Z,84.71
2019-06-27T23:20:30.546Z,84.85
2019-06-27T23:22:59.036Z,84.83
2019-06-27T23:25:27.525Z,85.16
2019-06-27T23:27:55.941Z,84.97
2019-06-27T23:30:24.423Z,84.85
2019-06-27T23:32:52.882Z,85.13
2019-06-27T23:35:21.320Z,85.38
2019-06-27T23:37:49.755Z,85.45
2019-06-27T23:40:19.432Z,85.59
2019-06-27T23:42:47.868Z,85.63
2019-06-27T23:45:16.288Z,85.85
2019-06-27T23:47:44.767Z,85.23
2019-06-27T23:50:13.535Z,84.68
2019-06-27T23:52:41.958Z,84.77
2019-06-27T23:55:10.517Z,84.65
2019-06-27T23:57:38.941Z,84.52
